Time;durP1;ratioP1;P1;durP2;ratioP2;P2;SDS_P1;SDS_P2;PMS_P1;PMS_P2;Temp;Humidity;BMP_temperature;BMP_pressure;BME280_temperature;BME280_humidity;BME280_pressure;Samples;Min_cycle;Max_cycle;Signal;HPM_P1;HPM_P2
2023/12/07 00:01:37;;;;;;;13.27;10.23;;;2.60;99.90;;;;;;5014553;28;20222;-60
2023/12/07 00:04:04;;;;;;;10.77;9.20;;;2.60;99.90;;;;;;5024318;28;20210;-60
2023/12/07 00:06:31;;;;;;;14.15;9.65;;;2.60;99.90;;;;;;5021371;28;20290;-60
2023/12/07 00:09:00;;;;;;;11.23;9.45;;;2.60;99.90;;;;;;5016377;28;20207;-59
2023/12/07 00:11:28;;;;;;;11.60;10.00;;;2.50;99.90;;;;;;5027487;28;20209;-59
2023/12/07 00:13:55;;;;;;;13.60;10.40;;;2.50;99.90;;;;;;5016635;28;20207;-60
2023/12/07 00:16:22;;;;;;;10.80;9.48;;;2.50;99.90;;;;;;5021588;28;20203;-60
2023/12/07 00:18:49;;;;;;;13.57;10.40;;;2.50;99.90;;;;;;5023410;28;20219;-58
2023/12/07 00:21:16;;;;;;;10.93;9.60;;;2.50;99.90;;;;;;5013503;28;20290;-58
2023/12/07 00:23:42;;;;;;;13.73;9.82;;;2.50;99.90;;;;;;5026857;28;20208;-60
2023/12/07 00:26:10;;;;;;;12.43;10.05;;;2.40;99.90;;;;;;5018215;28;20207;-60
2023/12/07 00:28:38;;;;;;;13.30;9.50;;;2.40;99.90;;;;;;5019190;28;20223;-60
2023/12/07 00:31:05;;;;;;;9.35;8.45;;;2.40;99.90;;;;;;5025741;28;20211;-60
2023/12/07 00:33:32;;;;;;;11.13;9.85;;;2.40;99.90;;;;;;5014291;28;20597;-60
2023/12/07 00:35:59;;;;;;;12.73;10.20;;;2.40;99.90;;;;;;5024224;28;20204;-59
2023/12/07 00:38:26;;;;;;;10.82;9.68;;;2.40;99.90;;;;;;5020500;28;20635;-59
2023/12/07 00:40:52;;;;;;;11.82;10.55;;;2.30;99.90;;;;;;5017497;28;20646;-60
2023/12/07 00:43:19;;;;;;;11.70;9.00;;;2.30;99.90;;;;;;5026157;28;20265;-60
2023/12/07 00:45:47;;;;;;;12.40;8.75;;;2.30;99.90;;;;;;5014616;28;20210;-60
2023/12/07 00:48:14;;;;;;;13.02;9.00;;;2.20;99.90;;;;;;5021808;28;20218;-59
2023/12/07 00:50:41;;;;;;;12.40;10.00;;;2.20;99.90;;;;;;5022273;28;20261;-57
2023/12/07 00:53:08;;;;;;;12.23;10.77;;;2.20;99.90;;;;;;5015029;28;20296;-60
2023/12/07 00:55:35;;;;;;;12.05;9.57;;;2.20;99.90;;;;;;5026660;28;20236;-60
2023/12/07 00:58:02;;;;;;;12.93;10.45;;;2.10;99.90;;;;;;5016741;28;20204;-60
2023/12/07 01:00:29;;;;;;;11.52;9.90;;;2.10;99.90;;;;;;5030417;28;20199;-60
2023/12/07 01:02:57;;;;;;;10.55;9.48;;;2.10;99.90;;;;;;5030375;28;20227;-60
2023/12/07 01:05:24;;;;;;;10.90;9.52;;;2.10;99.90;;;;;;5030546;28;20217;-58
2023/12/07 01:07:51;;;;;;;12.23;11.13;;;2.10;99.90;;;;;;5032204;28;20584;-59
2023/12/07 01:10:17;;;;;;;10.90;9.80;;;2.10;99.90;;;;;;5034253;28;20203;-60
2023/12/07 01:12:44;;;;;;;14.68;10.73;;;2.00;99.90;;;;;;5033730;28;20238;-59
2023/12/07 01:15:11;;;;;;;11.82;9.75;;;2.00;99.90;;;;;;5034014;28;20317;-60
2023/12/07 01:17:38;;;;;;;12.75;9.77;;;2.00;99.90;;;;;;5033768;28;20302;-58
2023/12/07 01:20:12;;;;;;;12.15;9.57;;;2.00;99.90;;;;;;5034116;28;20230;-59
2023/12/07 01:22:40;;;;;;;12.82;9.40;;;2.00;99.90;;;;;;5033998;28;20315;-59
2023/12/07 01:25:07;;;;;;;11.32;9.23;;;2.00;99.90;;;;;;5033874;28;20694;-58
2023/12/07 01:27:33;;;;;;;13.77;8.60;;;2.00;99.90;;;;;;5033741;28;20293;-58
2023/12/07 01:30:00;;;;;;;12.73;10.73;;;2.00;99.90;;;;;;5033927;28;20290;-59
2023/12/07 01:32:27;;;;;;;13.77;10.57;;;2.00;99.90;;;;;;5033648;28;20468;-60
2023/12/07 01:34:54;;;;;;;13.05;10.90;;;2.00;99.90;;;;;;5033729;28;20298;-61
2023/12/07 01:37:22;;;;;;;13.40;8.68;;;2.00;99.90;;;;;;5033480;28;20683;-59
2023/12/07 01:39:49;;;;;;;15.10;9.05;;;2.00;99.90;;;;;;5033786;28;20277;-59
2023/12/07 01:42:16;;;;;;;11.40;9.95;;;2.00;99.90;;;;;;5033512;28;20231;-57
2023/12/07 01:44:43;;;;;;;11.68;10.48;;;2.00;99.90;;;;;;5033586;28;20653;-60
2023/12/07 01:47:10;;;;;;;10.73;9.50;;;2.00;99.90;;;;;;5033407;28;20207;-59
2023/12/07 01:49:37;;;;;;;10.35;8.52;;;1.90;99.90;;;;;;5033767;28;20207;-60
2023/12/07 01:52:06;;;;;;;10.30;9.30;;;1.90;99.90;;;;;;5033487;28;20337;-61
2023/12/07 01:54:35;;;;;;;10.25;8.90;;;1.90;99.90;;;;;;5033376;28;20247;-59
2023/12/07 01:57:02;;;;;;;10.88;8.68;;;1.90;99.90;;;;;;5033408;28;20207;-62
2023/12/07 01:59:29;;;;;;;12.05;8.77;;;1.90;99.90;;;;;;5033194;28;20262;-61
2023/12/07 02:01:56;;;;;;;13.13;9.20;;;1.90;99.90;;;;;;5033194;28;20237;-59
2023/12/07 02:04:23;;;;;;;10.68;9.65;;;1.90;99.90;;;;;;5033228;28;20785;-61
2023/12/07 02:06:50;;;;;;;10.57;9.48;;;1.90;99.90;;;;;;5033133;28;20207;-62
2023/12/07 02:09:17;;;;;;;11.68;10.45;;;1.90;99.90;;;;;;5033073;28;20253;-62
2023/12/07 02:11:45;;;;;;;14.32;11.13;;;1.90;99.90;;;;;;5032895;28;20310;-61
2023/12/07 02:14:13;;;;;;;11.48;9.20;;;1.80;99.90;;;;;;5033389;28;20203;-62
2023/12/07 02:16:44;;;;;;;11.25;10.15;;;1.80;99.90;;;;;;5018674;28;20319;-61
2023/12/07 02:19:24;;;;;;;13.00;11.10;;;1.80;99.90;;;;;;5012059;28;20236;-61
2023/12/07 02:21:57;;;;;;;13.02;11.57;;;1.80;99.90;;;;;;5012826;28;20314;-61
2023/12/07 02:24:28;;;;;;;12.70;11.50;;;1.80;99.90;;;;;;5005502;28;20210;-61
2023/12/07 02:26:56;;;;;;;13.27;9.90;;;1.80;99.90;;;;;;5012891;28;20210;-62
2023/12/07 02:29:23;;;;;;;11.98;10.88;;;1.80;99.90;;;;;;5013030;28;20645;-61
2023/12/07 02:31:50;;;;;;;18.42;12.20;;;1.80;99.90;;;;;;5012991;28;20238;-60
2023/12/07 02:34:16;;;;;;;12.35;11.05;;;1.80;99.90;;;;;;5012719;28;20208;-61
2023/12/07 02:36:45;;;;;;;11.55;10.45;;;1.70;99.90;;;;;;5012687;28;20204;-59
2023/12/07 02:39:13;;;;;;;14.85;11.60;;;1.70;99.90;;;;;;5012571;28;20271;-61
2023/12/07 02:41:42;;;;;;;14.38;11.73;;;1.70;99.90;;;;;;5012793;28;20245;-61
2023/12/07 02:44:10;;;;;;;15.52;11.35;;;1.70;99.90;;;;;;5012699;28;20214;-61
2023/12/07 02:46:38;;;;;;;15.77;11.07;;;1.60;99.90;;;;;;5012610;28;20218;-61
2023/12/07 02:49:05;;;;;;;14.52;11.20;;;1.60;99.90;;;;;;5012508;28;20210;-60
2023/12/07 02:51:32;;;;;;;13.70;10.90;;;1.60;99.90;;;;;;5012482;28;20222;-59
2023/12/07 02:53:59;;;;;;;17.13;11.93;;;1.50;99.90;;;;;;5012286;28;20307;-61
2023/12/07 02:56:25;;;;;;;15.75;12.48;;;1.60;99.90;;;;;;5012630;28;20298;-62
2023/12/07 02:58:52;;;;;;;13.88;12.57;;;1.50;99.90;;;;;;5012210;28;20214;-60
2023/12/07 03:01:20;;;;;;;13.90;11.50;;;1.50;99.90;;;;;;5012285;28;20214;-60
2023/12/07 03:03:47;;;;;;;16.98;11.50;;;1.40;99.90;;;;;;5012363;28;20216;-58
2023/12/07 03:06:16;;;;;;;14.65;13.00;;;1.40;99.90;;;;;;5012470;28;20208;-59
2023/12/07 03:08:42;;;;;;;12.32;11.00;;;1.30;99.90;;;;;;5012279;28;20299;-60
2023/12/07 03:11:09;;;;;;;15.30;13.68;;;1.30;99.90;;;;;;5012255;28;20204;-60
2023/12/07 03:13:36;;;;;;;13.85;11.80;;;1.20;99.90;;;;;;5012152;28;20238;-60
2023/12/07 03:16:08;;;;;;;13.32;12.05;;;1.20;99.90;;;;;;5012108;28;20294;-59
2023/12/07 03:18:37;;;;;;;13.63;11.98;;;1.10;99.90;;;;;;5011837;28;20708;-60
2023/12/07 03:21:04;;;;;;;15.02;12.68;;;1.10;99.90;;;;;;5011966;28;20227;-60
2023/12/07 03:23:30;;;;;;;12.02;10.30;;;1.00;99.90;;;;;;5011172;28;20314;-61
2023/12/07 03:25:57;;;;;;;16.90;12.60;;;1.00;99.90;;;;;;5011731;28;20207;-61
2023/12/07 03:28:24;;;;;;;15.13;11.50;;;1.00;99.90;;;;;;5011816;28;20210;-60
2023/12/07 03:30:51;;;;;;;13.52;11.82;;;0.90;99.90;;;;;;5011633;28;20738;-59
2023/12/07 03:33:18;;;;;;;19.52;14.48;;;0.90;99.90;;;;;;5011404;28;20250;-61
2023/12/07 03:35:46;;;;;;;14.23;12.05;;;0.90;99.90;;;;;;5011052;28;20200;-60
2023/12/07 03:38:13;;;;;;;15.88;13.02;;;0.90;99.90;;;;;;5011565;28;20214;-60
2023/12/07 03:40:39;;;;;;;14.00;12.32;;;0.90;99.90;;;;;;5011806;28;20318;-59
2023/12/07 03:43:06;;;;;;;17.30;13.13;;;0.90;99.90;;;;;;5011403;28;20246;-60
2023/12/07 03:45:33;;;;;;;18.35;13.63;;;0.90;99.90;;;;;;5011515;28;20207;-60
2023/12/07 03:48:00;;;;;;;18.13;12.35;;;0.90;99.90;;;;;;5011415;28;20212;-60
2023/12/07 03:50:27;;;;;;;14.90;11.02;;;0.90;99.90;;;;;;5011638;28;20286;-60
2023/12/07 03:52:55;;;;;;;15.43;13.20;;;0.90;99.90;;;;;;5011658;28;20227;-59
2023/12/07 03:55:22;;;;;;;15.35;12.63;;;0.90;99.90;;;;;;5011026;28;20704;-60
2023/12/07 03:57:48;;;;;;;16.08;12.43;;;0.90;99.90;;;;;;5010884;28;20212;-59
2023/12/07 04:00:16;;;;;;;15.50;12.88;;;0.80;99.90;;;;;;5010950;28;20237;-60
2023/12/07 04:02:42;;;;;;;15.63;11.05;;;0.80;99.90;;;;;;5011246;28;20219;-59
2023/12/07 04:05:09;;;;;;;15.47;12.40;;;0.80;99.90;;;;;;5011642;28;20567;-60
2023/12/07 04:07:36;;;;;;;18.13;13.63;;;0.80;99.90;;;;;;5011354;28;20720;-60
2023/12/07 04:10:06;;;;;;;20.45;13.10;;;0.80;99.90;;;;;;5011493;28;20200;-58
2023/12/07 04:12:32;;;;;;;20.92;12.75;;;0.80;99.90;;;;;;5011366;28;20227;-58
2023/12/07 04:15:00;;;;;;;15.45;13.85;;;0.80;99.90;;;;;;5011417;28;20731;-58
2023/12/07 04:17:26;;;;;;;17.98;13.43;;;0.80;99.90;;;;;;5011121;28;20682;-56
2023/12/07 04:19:53;;;;;;;18.38;13.45;;;0.80;99.90;;;;;;5011448;28;20227;-57
2023/12/07 04:22:20;;;;;;;15.00;12.18;;;0.70;99.90;;;;;;5011090;28;20231;-59
2023/12/07 04:24:47;;;;;;;19.42;14.27;;;0.70;99.90;;;;;;5011212;28;20211;-59
2023/12/07 04:27:15;;;;;;;21.45;14.82;;;0.70;99.90;;;;;;5010997;28;20211;-60
2023/12/07 04:29:42;;;;;;;17.15;13.55;;;0.70;99.90;;;;;;5011221;28;20204;-61
2023/12/07 04:32:09;;;;;;;18.50;13.13;;;0.70;99.90;;;;;;5011378;28;20669;-60
2023/12/07 04:34:36;;;;;;;17.65;12.38;;;0.60;99.90;;;;;;5011300;28;20214;-59
2023/12/07 04:37:03;;;;;;;20.08;14.05;;;0.60;99.90;;;;;;5011039;28;20671;-60
2023/12/07 04:39:30;;;;;;;19.80;14.13;;;0.60;99.90;;;;;;5011050;28;20215;-59
2023/12/07 04:41:57;;;;;;;18.65;13.00;;;0.60;99.90;;;;;;5011337;28;20326;-56
2023/12/07 04:44:26;;;;;;;16.83;13.55;;;0.60;99.90;;;;;;5015263;28;20210;-58
2023/12/07 04:46:53;;;;;;;17.40;13.02;;;0.50;99.90;;;;;;5015099;28;20207;-59
2023/12/07 04:49:20;;;;;;;14.73;13.00;;;0.50;99.90;;;;;;5014920;28;20299;-59
2023/12/07 04:51:46;;;;;;;17.80;12.23;;;0.50;99.90;;;;;;5014891;28;20258;-60
2023/12/07 04:54:14;;;;;;;16.80;11.95;;;0.50;99.90;;;;;;5014938;28;20648;-61
2023/12/07 04:56:41;;;;;;;18.45;15.93;;;0.50;99.90;;;;;;5014399;28;20216;-61
2023/12/07 04:59:09;;;;;;;18.98;13.00;;;0.50;99.90;;;;;;5014439;28;20306;-60
2023/12/07 05:01:37;;;;;;;22.58;14.52;;;0.50;99.90;;;;;;5014738;28;20223;-61
2023/12/07 05:04:05;;;;;;;17.88;13.13;;;0.50;99.90;;;;;;5014752;28;20207;-59
2023/12/07 05:06:32;;;;;;;17.63;13.00;;;0.50;99.90;;;;;;5014593;28;20216;-59
2023/12/07 05:08:59;;;;;;;21.80;15.63;;;0.50;99.90;;;;;;5014449;28;20299;-57
2023/12/07 05:11:26;;;;;;;17.08;12.90;;;0.50;99.90;;;;;;5014325;28;20299;-57
2023/12/07 05:13:53;;;;;;;17.42;14.70;;;0.50;99.90;;;;;;5014392;28;20261;-58
2023/12/07 05:16:20;;;;;;;17.92;13.90;;;0.50;99.90;;;;;;5014499;28;20290;-60
2023/12/07 05:18:48;;;;;;;20.13;13.85;;;0.40;99.90;;;;;;5014244;28;20203;-57
2023/12/07 05:21:15;;;;;;;21.23;15.75;;;0.40;99.90;;;;;;5014299;28;20227;-59
2023/12/07 05:23:41;;;;;;;15.80;13.20;;;0.40;99.90;;;;;;5014227;28;20234;-59
2023/12/07 05:26:08;;;;;;;20.05;13.60;;;0.40;99.90;;;;;;5013987;28;20697;-55
2023/12/07 05:28:37;;;;;;;23.23;14.40;;;0.30;99.90;;;;;;5013980;28;20223;-58
2023/12/07 05:31:04;;;;;;;27.45;16.98;;;0.30;99.90;;;;;;5014238;28;20200;-57
2023/12/07 05:33:31;;;;;;;23.92;14.20;;;0.30;99.90;;;;;;5014165;28;20232;-58
2023/12/07 05:36:00;;;;;;;20.65;15.23;;;0.30;99.90;;;;;;5013963;28;20214;-55
2023/12/07 05:38:27;;;;;;;21.40;14.68;;;0.20;99.90;;;;;;5013921;28;20204;-58
2023/12/07 05:40:54;;;;;;;16.33;14.15;;;0.20;99.90;;;;;;5013328;28;20676;-59
2023/12/07 05:43:20;;;;;;;17.20;13.80;;;0.20;99.90;;;;;;5013628;28;20235;-56
2023/12/07 05:45:47;;;;;;;19.90;14.30;;;0.20;99.90;;;;;;5013999;28;20208;-57
2023/12/07 05:48:14;;;;;;;22.58;14.35;;;0.20;99.90;;;;;;5054382;22;20241;-52
2023/12/07 05:50:41;;;;;;;22.75;16.55;;;0.10;99.90;;;;;;5034192;28;20203;-55
2023/12/07 05:53:10;;;;;;;19.50;15.00;;;0.10;99.90;;;;;;5033507;28;20215;-54
2023/12/07 05:55:37;;;;;;;20.67;14.27;;;0.10;99.90;;;;;;5033271;28;20253;-58
2023/12/07 05:58:04;;;;;;;21.80;15.13;;;0.10;99.90;;;;;;5033931;28;20318;-54
2023/12/07 06:00:31;;;;;;;17.58;15.15;;;0.00;99.90;;;;;;5033817;28;20231;-54
2023/12/07 06:02:59;;;;;;;22.73;16.13;;;0.00;99.90;;;;;;5033722;28;20215;-54
2023/12/07 06:05:26;;;;;;;22.15;16.25;;;0.00;99.90;;;;;;5033883;28;20209;-52
2023/12/07 06:07:54;;;;;;;19.80;16.10;;;0.00;99.90;;;;;;5033322;28;20227;-53
2023/12/07 06:10:22;;;;;;;24.70;15.32;;;0.00;99.90;;;;;;5033750;28;20245;-54
2023/12/07 06:12:49;;;;;;;21.95;15.07;;;0.00;99.90;;;;;;5033994;28;20242;-52
2023/12/07 06:15:16;;;;;;;21.20;14.35;;;-0.10;99.90;;;;;;5033632;28;20595;-54
2023/12/07 06:17:44;;;;;;;17.90;14.57;;;-0.10;99.90;;;;;;5033493;28;20231;-52
2023/12/07 06:20:11;;;;;;;20.98;13.68;;;-0.10;99.90;;;;;;5033555;28;20297;-52
2023/12/07 06:22:37;;;;;;;24.35;14.52;;;-0.10;99.90;;;;;;5033288;28;20250;-55
2023/12/07 06:25:05;;;;;;;25.67;17.50;;;-0.20;99.90;;;;;;5033546;28;20231;-57
2023/12/07 06:27:33;;;;;;;21.25;15.60;;;-0.20;99.90;;;;;;5033245;28;20691;-53
2023/12/07 06:30:00;;;;;;;18.08;15.18;;;-0.20;99.90;;;;;;5033469;28;20211;-55
2023/12/07 06:32:27;;;;;;;21.30;15.90;;;-0.20;99.90;;;;;;5033399;28;20211;-54
2023/12/07 06:34:54;;;;;;;19.65;14.30;;;-0.30;99.90;;;;;;5032984;28;20210;-54
2023/12/07 06:37:21;;;;;;;21.15;15.70;;;-0.30;99.90;;;;;;5033103;28;20234;-56
2023/12/07 06:39:48;;;;;;;23.15;15.75;;;-0.30;99.90;;;;;;5033309;28;20218;-55
2023/12/07 06:42:15;;;;;;;27.98;17.33;;;-0.30;99.90;;;;;;5032992;28;20227;-54
2023/12/07 06:44:44;;;;;;;19.35;15.50;;;-0.30;99.90;;;;;;5033077;28;20203;-53
2023/12/07 06:47:11;;;;;;;23.35;14.90;;;-0.40;99.90;;;;;;5032782;28;20211;-53
2023/12/07 06:49:38;;;;;;;17.05;13.73;;;-0.40;99.90;;;;;;5033292;28;20218;-54
2023/12/07 06:52:05;;;;;;;21.95;14.68;;;-0.40;99.90;;;;;;5033167;28;20581;-53
2023/12/07 06:54:32;;;;;;;21.10;15.70;;;-0.40;99.90;;;;;;5033139;28;20199;-53
2023/12/07 06:56:58;;;;;;;23.83;15.80;;;-0.40;99.90;;;;;;5032907;28;20211;-56
2023/12/07 06:59:25;;;;;;;19.58;15.57;;;-0.40;99.90;;;;;;5032612;28;20206;-53
2023/12/07 07:01:54;;;;;;;19.40;13.52;;;-0.40;99.90;;;;;;5032636;28;20233;-53
2023/12/07 07:04:20;;;;;;;23.40;16.35;;;-0.40;99.90;;;;;;5032187;28;20696;-59
2023/12/07 07:06:47;;;;;;;23.10;18.83;;;-0.40;99.90;;;;;;5032363;28;20381;-58
2023/12/07 07:09:15;;;;;;;19.75;13.80;;;-0.50;99.90;;;;;;5032511;28;20226;-56
2023/12/07 07:11:43;;;;;;;20.50;16.48;;;-0.50;99.90;;;;;;5032645;28;20203;-55
2023/12/07 07:14:10;;;;;;;20.25;16.73;;;-0.50;99.90;;;;;;5032785;28;20211;-52
2023/12/07 07:16:37;;;;;;;19.17;15.05;;;-0.50;99.90;;;;;;5032324;28;20293;-55
2023/12/07 07:19:05;;;;;;;18.73;14.52;;;-0.50;99.90;;;;;;5032366;28;20233;-52
2023/12/07 07:21:32;;;;;;;17.65;12.98;;;-0.50;99.90;;;;;;5032502;28;20317;-57
2023/12/07 07:23:59;;;;;;;21.75;14.93;;;-0.50;99.90;;;;;;5032162;28;20215;-57
2023/12/07 07:26:26;;;;;;;19.77;14.73;;;-0.50;99.90;;;;;;5032258;28;20239;-54
2023/12/07 07:28:53;;;;;;;19.73;15.07;;;-0.50;99.90;;;;;;5032118;28;20226;-57
2023/12/07 07:31:20;;;;;;;19.48;15.27;;;-0.50;99.90;;;;;;5031000;28;20298;-54
2023/12/07 07:33:47;;;;;;;19.20;14.15;;;-0.50;99.90;;;;;;5031450;28;20207;-56
2023/12/07 07:36:16;;;;;;;26.08;15.40;;;-0.40;99.90;;;;;;5032392;28;20206;-56
2023/12/07 07:38:43;;;;;;;15.85;12.20;;;-0.40;99.90;;;;;;5031983;28;20223;-56
2023/12/07 07:41:10;;;;;;;21.15;14.55;;;-0.30;99.90;;;;;;5032445;28;20223;-55
2023/12/07 07:43:37;;;;;;;20.75;15.90;;;-0.30;99.90;;;;;;5032277;28;20214;-56
2023/12/07 07:46:04;;;;;;;19.05;17.02;;;-0.20;99.90;;;;;;5032090;28;20214;-53
2023/12/07 07:48:31;;;;;;;22.98;15.88;;;-0.10;99.90;;;;;;5031522;28;20317;-53
2023/12/07 07:50:58;;;;;;;19.75;14.82;;;-0.10;99.90;;;;;;5032238;28;20237;-58
2023/12/07 07:53:26;;;;;;;18.13;14.52;;;0.00;99.90;;;;;;5032277;28;20294;-54
2023/12/07 07:55:53;;;;;;;20.30;15.25;;;0.10;99.90;;;;;;5031930;28;20215;-52
2023/12/07 07:58:20;;;;;;;18.55;16.05;;;0.10;99.90;;;;;;5031854;28;20237;-52
2023/12/07 08:00:47;;;;;;;22.98;17.13;;;0.20;99.90;;;;;;5032053;28;20258;-53
2023/12/07 08:03:14;;;;;;;20.42;14.88;;;0.30;99.90;;;;;;5031988;28;20219;-55
2023/12/07 08:05:41;;;;;;;27.27;19.35;;;0.40;99.90;;;;;;5031836;28;20585;-55
2023/12/07 08:08:08;;;;;;;22.38;18.00;;;0.50;99.90;;;;;;5031595;28;20237;-54
2023/12/07 08:10:38;;;;;;;18.77;17.00;;;0.60;99.90;;;;;;5031753;28;20211;-53
2023/12/07 08:13:04;;;;;;;24.80;17.67;;;0.70;99.90;;;;;;5031708;28;20225;-55
2023/12/07 08:15:32;;;;;;;23.27;15.63;;;0.80;99.90;;;;;;5031542;28;20203;-53
2023/12/07 08:17:58;;;;;;;21.85;16.90;;;0.80;99.90;;;;;;5042125;28;20230;-59
2023/12/07 08:20:26;;;;;;;25.42;16.77;;;0.90;99.90;;;;;;5044551;28;20212;-53
2023/12/07 08:22:53;;;;;;;26.65;15.82;;;0.90;99.90;;;;;;5043924;28;20211;-55
2023/12/07 08:25:19;;;;;;;22.95;14.95;;;1.00;99.90;;;;;;5054626;28;20698;-59
2023/12/07 08:27:49;;;;;;;29.30;17.55;;;1.00;99.90;;;;;;5055232;28;20229;-55
2023/12/07 08:30:16;;;;;;;26.67;18.75;;;1.10;99.90;;;;;;5055625;28;20212;-56
2023/12/07 08:32:43;;;;;;;28.40;18.98;;;1.10;99.90;;;;;;5053617;28;20297;-56
2023/12/07 08:35:09;;;;;;;22.70;16.00;;;1.20;99.90;;;;;;5035427;28;20594;-55
2023/12/07 08:37:39;;;;;;;24.67;16.30;;;1.20;99.90;;;;;;5032949;28;20309;-58
2023/12/07 08:40:09;;;;;;;26.40;16.98;;;1.20;99.90;;;;;;5043993;28;20222;-55
2023/12/07 08:42:36;;;;;;;29.35;19.25;;;1.30;99.90;;;;;;5044280;28;20227;-58
2023/12/07 08:45:06;;;;;;;33.08;18.73;;;1.30;99.90;;;;;;5041585;28;20211;-56
2023/12/07 08:47:32;;;;;;;26.55;17.42;;;1.30;99.90;;;;;;5044697;28;20313;-58
2023/12/07 08:49:59;;;;;;;35.60;20.25;;;1.40;99.90;;;;;;5042908;28;20202;-56
2023/12/07 08:52:27;;;;;;;32.67;16.48;;;1.40;99.90;;;;;;5046316;28;20207;-56
2023/12/07 08:54:54;;;;;;;24.17;14.95;;;1.40;99.90;;;;;;5036994;28;20210;-54
2023/12/07 08:57:21;;;;;;;24.17;17.42;;;1.40;99.90;;;;;;5043629;28;20245;-54
2023/12/07 08:59:47;;;;;;;26.08;17.95;;;1.40;99.90;;;;;;5031459;28;20206;-55
2023/12/07 09:02:16;;;;;;;27.05;16.67;;;1.40;99.90;;;;;;5043206;28;20736;-55
2023/12/07 09:04:42;;;;;;;31.23;16.58;;;1.40;99.90;;;;;;5040593;28;20207;-56
2023/12/07 09:07:11;;;;;;;31.33;18.90;;;1.40;99.90;;;;;;5046107;28;20275;-53
2023/12/07 09:09:38;;;;;;;40.92;18.58;;;1.50;99.90;;;;;;5039091;28;20297;-53
2023/12/07 09:12:05;;;;;;;47.28;21.45;;;1.50;99.90;;;;;;5046145;28;20203;-54
2023/12/07 09:14:32;;;;;;;39.08;22.13;;;1.50;99.90;;;;;;5039889;28;20206;-55
2023/12/07 09:16:59;;;;;;;50.25;21.77;;;1.50;99.90;;;;;;5046270;28;20206;-57
2023/12/07 09:19:27;;;;;;;42.03;22.80;;;1.50;99.90;;;;;;5036035;28;20563;-54
2023/12/07 09:21:54;;;;;;;57.75;24.13;;;1.50;99.90;;;;;;5034337;28;20219;-52
2023/12/07 09:24:21;;;;;;;44.50;22.67;;;1.60;99.90;;;;;;5031845;28;20554;-56
2023/12/07 09:26:48;;;;;;;41.67;22.75;;;1.60;99.90;;;;;;5033354;28;20207;-57
2023/12/07 09:29:15;;;;;;;35.22;21.02;;;1.60;99.90;;;;;;5037299;28;20237;-57
2023/12/07 09:31:42;;;;;;;30.63;20.85;;;1.60;99.90;;;;;;5041520;28;20195;-56
2023/12/07 09:34:09;;;;;;;39.03;19.48;;;1.70;99.90;;;;;;5038358;28;20242;-53
2023/12/07 09:36:37;;;;;;;29.83;18.50;;;1.70;99.90;;;;;;5041741;28;20203;-55
2023/12/07 09:39:04;;;;;;;33.35;19.98;;;1.80;99.90;;;;;;5036441;28;20281;-58
2023/12/07 09:41:31;;;;;;;35.60;21.10;;;1.80;99.90;;;;;;5040882;28;20225;-58
2023/12/07 09:44:00;;;;;;;28.88;18.75;;;1.80;99.90;;;;;;5035033;28;20289;-58
2023/12/07 09:46:27;;;;;;;31.35;20.05;;;1.90;99.90;;;;;;5029217;28;20209;-59
2023/12/07 09:48:54;;;;;;;32.53;20.55;;;1.90;99.90;;;;;;5039038;28;20317;-56
2023/12/07 09:51:22;;;;;;;32.83;20.85;;;2.00;99.90;;;;;;5046384;28;20207;-56
2023/12/07 09:53:53;;;;;;;30.60;21.25;;;2.10;99.90;;;;;;5039985;28;20636;-55
2023/12/07 09:56:21;;;;;;;25.33;17.58;;;2.10;99.90;;;;;;5046788;28;20681;-58
2023/12/07 09:58:47;;;;;;;24.73;18.27;;;2.20;99.90;;;;;;5036897;28;20230;-55
2023/12/07 10:01:14;;;;;;;29.55;17.50;;;2.20;99.90;;;;;;5042589;28;20207;-56
2023/12/07 10:03:42;;;;;;;20.10;15.68;;;2.20;99.90;;;;;;5044688;28;20241;-56
2023/12/07 10:06:09;;;;;;;20.00;15.68;;;2.30;99.90;;;;;;5036868;28;20207;-55
2023/12/07 10:08:37;;;;;;;33.53;15.95;;;2.30;99.90;;;;;;5046826;28;20309;-56
2023/12/07 10:11:07;;;;;;;27.20;17.95;;;2.30;99.90;;;;;;5042755;28;20207;-56
2023/12/07 10:13:34;;;;;;;28.20;17.55;;;2.30;99.90;;;;;;5040129;28;20199;-56
2023/12/07 10:16:12;;;;;;;23.60;14.90;;;2.30;99.90;;;;;;5044335;28;20293;-56
2023/12/07 10:18:40;;;;;;;26.00;15.10;;;2.30;99.90;;;;;;5031569;28;20223;-56
2023/12/07 10:21:09;;;;;;;38.25;17.20;;;2.20;99.90;;;;;;5047401;28;20207;-55
2023/12/07 10:23:36;;;;;;;19.30;13.70;;;2.20;99.90;;;;;;5040567;28;20581;-53
2023/12/07 10:26:05;;;;;;;31.90;17.80;;;2.20;99.90;;;;;;5032690;28;20297;-55
2023/12/07 10:28:35;;;;;;;34.83;19.75;;;2.20;99.90;;;;;;5043761;28;20232;-57
2023/12/07 10:31:02;;;;;;;21.67;15.70;;;2.30;99.90;;;;;;5033122;28;20203;-58
2023/12/07 10:33:29;;;;;;;20.60;16.10;;;2.30;99.90;;;;;;5042690;28;20218;-54
2023/12/07 10:35:56;;;;;;;18.38;14.75;;;2.20;99.90;;;;;;5038141;28;20564;-54
2023/12/07 10:38:23;;;;;;;21.42;15.20;;;2.20;99.90;;;;;;5040573;28;20234;-55
2023/12/07 10:41:02;;;;;;;21.17;13.55;;;2.20;99.90;;;;;;5034149;28;20207;-57
2023/12/07 10:43:31;;;;;;;22.80;14.80;;;2.20;99.90;;;;;;5031947;28;20309;-56
2023/12/07 10:45:58;;;;;;;25.90;16.17;;;2.10;99.90;;;;;;5039554;28;20563;-55
2023/12/07 10:48:26;;;;;;;23.55;14.73;;;2.10;99.90;;;;;;5040795;28;20787;-55
2023/12/07 10:50:56;;;;;;;22.77;16.10;;;2.10;99.90;;;;;;5037392;28;20297;-56
2023/12/07 10:53:29;;;;;;;22.15;16.30;;;2.10;99.90;;;;;;5038013;28;20341;-56
2023/12/07 10:55:59;;;;;;;19.00;15.52;;;2.10;99.90;;;;;;5035021;28;20269;-57
2023/12/07 10:58:26;;;;;;;27.60;18.98;;;2.10;99.90;;;;;;5039414;28;20301;-54
2023/12/07 11:00:55;;;;;;;23.65;14.90;;;2.20;99.90;;;;;;5040313;28;20222;-57
2023/12/07 11:03:22;;;;;;;19.45;13.05;;;2.10;99.90;;;;;;5042397;28;20237;-53
2023/12/07 11:05:50;;;;;;;21.98;14.95;;;2.10;99.90;;;;;;5040025;28;20582;-54
2023/12/07 11:08:24;;;;;;;22.48;17.73;;;2.20;99.90;;;;;;5041250;28;20226;-56
2023/12/07 11:11:01;;;;;;;15.20;13.40;;;2.20;99.90;;;;;;5036555;28;20202;-53
2023/12/07 11:13:32;;;;;;;21.02;13.27;;;2.20;99.90;;;;;;5039486;28;20202;-53
2023/12/07 11:16:00;;;;;;;23.85;12.90;;;2.10;99.90;;;;;;5040780;28;20293;-56
2023/12/07 11:18:27;;;;;;;21.58;13.82;;;2.10;99.90;;;;;;5040861;28;20582;-58
2023/12/07 11:20:56;;;;;;;18.45;12.82;;;2.10;99.90;;;;;;5042249;28;20285;-55
2023/12/07 11:23:23;;;;;;;26.60;15.85;;;2.10;99.90;;;;;;5040696;28;20377;-55
2023/12/07 11:25:53;;;;;;;49.15;21.67;;;2.10;99.90;;;;;;5039639;28;20649;-57
2023/12/07 11:28:34;;;;;;;27.38;16.58;;;2.10;99.90;;;;;;5035808;28;20677;-56
2023/12/07 11:31:02;;;;;;;28.85;17.55;;;2.20;99.90;;;;;;5039930;28;20233;-55
2023/12/07 11:33:30;;;;;;;25.45;18.58;;;2.20;99.90;;;;;;5034127;28;20294;-56
2023/12/07 11:36:08;;;;;;;28.50;17.50;;;2.20;99.90;;;;;;5041917;28;20585;-55
2023/12/07 11:38:37;;;;;;;29.00;18.45;;;2.20;99.90;;;;;;5029869;28;20237;-57
2023/12/07 11:41:04;;;;;;;30.13;16.95;;;2.30;99.90;;;;;;5042479;28;20199;-56
2023/12/07 11:43:43;;;;;;;28.33;19.73;;;2.30;99.90;;;;;;5032327;28;20233;-55
2023/12/07 11:46:12;;;;;;;31.55;21.55;;;2.40;99.90;;;;;;5038333;28;20234;-56
2023/12/07 11:48:39;;;;;;;32.55;18.25;;;2.40;99.90;;;;;;5029503;28;20231;-55
2023/12/07 11:51:07;;;;;;;31.27;20.48;;;2.40;99.90;;;;;;5031102;28;20207;-55
2023/12/07 11:53:35;;;;;;;28.17;18.58;;;2.40;99.90;;;;;;5031363;28;20642;-56
2023/12/07 11:56:03;;;;;;;28.05;19.85;;;2.50;99.90;;;;;;5030844;28;20298;-57
2023/12/07 11:58:31;;;;;;;25.13;19.02;;;2.50;99.90;;;;;;5027147;28;20313;-57
2023/12/07 12:00:59;;;;;;;25.55;18.20;;;2.60;99.90;;;;;;5042991;28;20586;-55
2023/12/07 12:03:28;;;;;;;28.42;19.63;;;2.60;99.90;;;;;;5035684;28;20228;-52
2023/12/07 12:05:55;;;;;;;31.15;19.00;;;2.60;99.90;;;;;;5040689;28;20666;-56
2023/12/07 12:08:23;;;;;;;36.92;19.95;;;2.70;99.90;;;;;;5041979;28;20227;-57
2023/12/07 12:10:53;;;;;;;35.88;22.48;;;2.70;99.90;;;;;;5042342;28;20285;-53
2023/12/07 12:13:20;;;;;;;40.22;20.75;;;2.70;99.90;;;;;;5040017;28;20203;-54
2023/12/07 12:15:47;;;;;;;29.33;18.33;;;2.80;99.90;;;;;;5041182;28;20294;-58
2023/12/07 12:18:16;;;;;;;30.17;20.65;;;2.80;99.90;;;;;;5041950;28;20230;-55
2023/12/07 12:20:46;;;;;;;29.83;22.05;;;2.80;99.90;;;;;;5042643;28;20209;-58
2023/12/07 12:23:13;;;;;;;28.08;18.45;;;2.80;99.90;;;;;;5032633;28;20765;-55
2023/12/07 12:25:40;;;;;;;29.60;21.33;;;2.80;99.90;;;;;;5041036;28;20210;-58
2023/12/07 12:28:08;;;;;;;30.88;20.05;;;2.80;99.90;;;;;;5033947;28;20656;-58
2023/12/07 12:30:35;;;;;;;30.35;19.65;;;2.80;99.90;;;;;;5031732;28;20213;-55
2023/12/07 12:33:01;;;;;;;31.08;19.52;;;2.80;99.90;;;;;;5038787;28;20425;-56
2023/12/07 12:35:29;;;;;;;26.77;19.65;;;2.80;99.90;;;;;;5029938;28;20207;-56
2023/12/07 12:37:57;;;;;;;31.20;20.45;;;2.80;99.90;;;;;;5039492;28;20258;-55